createdAt,value
2018-03-02T00:00:04.590Z,41.40
2018-03-02T00:01:04.567Z,42.60
2018-03-02T00:02:04.535Z,39.90
2018-03-02T00:03:04.514Z,43.80
2018-03-02T00:04:04.484Z,41.30
2018-03-02T00:05:04.462Z,37.50
2018-03-02T00:06:04.432Z,40.60
2018-03-02T00:07:04.411Z,40.50
2018-03-02T00:08:04.379Z,41.20
2018-03-02T00:09:04.354Z,42.30
2018-03-02T00:10:04.375Z,41.40
2018-03-02T00:11:04.305Z,42.00
2018-03-02T00:12:04.272Z,40.70
2018-03-02T00:13:04.249Z,39.50
2018-03-02T00:14:04.223Z,40.10
2018-03-02T00:15:04.196Z,41.70
2018-03-02T00:16:04.169Z,40.30
2018-03-02T00:17:04.145Z,39.60
2018-03-02T00:18:04.122Z,43.00
2018-03-02T00:19:04.096Z,40.30
2018-03-02T00:20:04.066Z,42.20
2018-03-02T00:21:04.042Z,43.80
2018-03-02T00:22:04.015Z,41.30
2018-03-02T00:23:03.991Z,43.30
2018-03-02T00:24:03.964Z,42.80
2018-03-02T00:25:03.948Z,42.80
2018-03-02T00:26:03.915Z,43.90
2018-03-02T00:27:03.888Z,42.80
2018-03-02T00:28:03.859Z,40.30
2018-03-02T00:29:03.835Z,45.40
2018-03-02T00:30:03.808Z,44.10
2018-03-02T00:31:03.796Z,42.00
2018-03-02T00:32:03.756Z,44.00
2018-03-02T00:33:03.828Z,45.40
2018-03-02T00:34:03.702Z,39.80
2018-03-02T00:35:03.687Z,44.30
2018-03-02T00:36:03.650Z,41.90
2018-03-02T00:37:03.701Z,42.80
2018-03-02T00:38:03.600Z,48.50
2018-03-02T00:39:03.584Z,46.00
2018-03-02T00:40:03.553Z,45.40
2018-03-02T00:41:03.521Z,44.50
2018-03-02T00:42:03.495Z,41.30
2018-03-02T00:43:03.470Z,44.10
2018-03-02T00:44:03.443Z,43.90
2018-03-02T00:45:03.435Z,45.30
2018-03-02T00:46:03.396Z,44.50
2018-03-02T00:47:03.426Z,49.00
2018-03-02T00:48:03.337Z,44.70
2018-03-02T00:49:03.330Z,44.70
2018-03-02T00:50:03.290Z,44.20
2018-03-02T00:51:03.264Z,46.40
2018-03-02T00:52:03.233Z,46.30
2018-03-02T00:53:03.211Z,47.00
2018-03-02T00:54:03.183Z,47.10
2018-03-02T00:55:03.163Z,47.90
2018-03-02T00:56:03.130Z,48.50
2018-03-02T00:57:03.103Z,50.70
2018-03-02T00:58:03.076Z,46.80
2018-03-02T00:59:03.050Z,48.70
2018-03-02T01:00:03.027Z,47.00
2018-03-02T01:01:02.998Z,44.50
2018-03-02T01:02:02.971Z,51.70
2018-03-02T01:03:02.947Z,49.50
2018-03-02T01:04:02.918Z,50.50
2018-03-02T01:05:02.895Z,52.00
2018-03-02T01:06:02.871Z,48.00
2018-03-02T01:07:02.837Z,47.90
2018-03-02T01:08:02.823Z,49.80
2018-03-02T01:09:02.787Z,48.50
2018-03-02T01:10:02.763Z,44.60
2018-03-02T01:11:02.739Z,50.70
2018-03-02T01:12:02.714Z,52.20
2018-03-02T01:13:02.684Z,47.20
2018-03-02T01:14:02.660Z,47.90
2018-03-02T01:15:02.630Z,51.90
2018-03-02T01:16:02.608Z,48.40
2018-03-02T01:17:02.582Z,49.10
2018-03-02T01:18:02.553Z,51.40
2018-03-02T01:19:02.525Z,50.10
2018-03-02T01:20:02.500Z,51.80
2018-03-02T01:21:02.484Z,52.90
2018-03-02T01:22:02.448Z,49.80
2018-03-02T01:23:02.424Z,47.20
2018-03-02T01:24:02.400Z,54.00
2018-03-02T01:25:02.375Z,50.70
2018-03-02T01:26:02.345Z,51.60
2018-03-02T01:27:02.320Z,53.30
2018-03-02T01:28:02.344Z,53.10
2018-03-02T01:29:02.265Z,49.90
2018-03-02T01:30:02.250Z,51.10
2018-03-02T01:31:02.214Z,50.80
2018-03-02T01:32:02.184Z,52.10
2018-03-02T01:33:02.163Z,52.20
2018-03-02T01:34:02.135Z,51.70
2018-03-02T01:35:02.106Z,54.70
2018-03-02T01:36:02.084Z,52.60
2018-03-02T01:37:02.055Z,50.30
2018-03-02T01:38:02.050Z,47.60
2018-03-02T01:39:02.004Z,53.50
2018-03-02T01:40:02.054Z,51.50
2018-03-02T01:41:01.956Z,55.30
2018-03-02T01:42:01.929Z,50.50
2018-03-02T01:43:01.900Z,51.60
2018-03-02T01:44:01.878Z,51.40
2018-03-02T01:45:01.843Z,50.30
2018-03-02T01:46:01.857Z,51.50
2018-03-02T01:47:01.791Z,49.80
2018-03-02T01:48:01.818Z,49.90
2018-03-02T01:49:01.744Z,54.70
2018-03-02T01:50:01.750Z,50.90
2018-03-02T01:51:01.686Z,53.50
2018-03-02T01:52:01.658Z,50.00
2018-03-02T01:53:01.639Z,49.30
2018-03-02T01:54:01.614Z,55.00
2018-03-02T01:55:01.584Z,52.70
2018-03-02T01:56:01.559Z,49.30
2018-03-02T01:57:01.526Z,56.50
2018-03-02T01:58:01.503Z,51.70
2018-03-02T01:59:01.476Z,53.40
2018-03-02T02:00:01.451Z,50.30
2018-03-02T02:01:01.422Z,52.80
2018-03-02T02:02:01.397Z,52.40
2018-03-02T02:03:01.373Z,51.20
2018-03-02T02:04:01.344Z,53.10
2018-03-02T02:05:01.320Z,55.20
2018-03-02T02:06:01.294Z,52.80
2018-03-02T02:07:01.265Z,50.20
2018-03-02T02:08:01.241Z,53.30
2018-03-02T02:09:01.215Z,51.50
2018-03-02T02:10:01.191Z,51.40
2018-03-02T02:11:01.160Z,51.10
2018-03-02T02:12:01.134Z,51.60
2018-03-02T02:13:01.116Z,53.80
2018-03-02T02:14:01.082Z,52.00
2018-03-02T02:15:01.059Z,51.20
2018-03-02T02:16:01.034Z,53.90
2018-03-02T02:17:01.003Z,52.10
2018-03-02T02:18:00.978Z,47.20
2018-03-02T02:19:00.954Z,54.50
2018-03-02T02:20:00.923Z,51.30
2018-03-02T02:21:00.898Z,50.80
2018-03-02T02:22:00.871Z,53.30
2018-03-02T02:23:00.844Z,53.60
2018-03-02T02:24:00.820Z,53.00
2018-03-02T02:25:00.794Z,51.00
2018-03-02T02:26:00.764Z,53.40
2018-03-02T02:27:00.734Z,51.80
2018-03-02T02:28:00.713Z,50.90
2018-03-02T02:29:00.684Z,52.90
2018-03-02T02:30:00.659Z,50.70
2018-03-02T02:31:00.632Z,55.70
2018-03-02T02:32:00.608Z,54.60
2018-03-02T02:33:00.582Z,53.70
2018-03-02T02:34:00.559Z,51.60
2018-03-02T02:35:00.526Z,52.10
2018-03-02T02:36:00.502Z,54.50
2018-03-02T02:37:00.474Z,50.40
2018-03-02T02:38:00.450Z,54.40
2018-03-02T02:39:00.424Z,53.60
2018-03-02T02:40:00.393Z,52.10
2018-03-02T02:41:00.366Z,51.10
2018-03-02T02:42:00.343Z,53.20
2018-03-02T02:43:00.317Z,53.20
2018-03-02T02:44:00.289Z,52.90
2018-03-02T02:45:00.263Z,51.60
2018-03-02T02:46:00.239Z,53.60
2018-03-02T02:47:00.269Z,56.80
2018-03-02T02:48:00.184Z,50.60
2018-03-02T02:49:00.159Z,53.30
2018-03-02T02:50:00.132Z,51.60
2018-03-02T02:51:00.168Z,53.00
2018-03-02T02:52:00.082Z,54.10
2018-03-02T02:53:00.058Z,52.40
2018-03-02T02:54:00.027Z,51.60
2018-03-02T02:55:00.011Z,52.70
2018-03-02T02:55:59.980Z,51.20
2018-03-02T02:56:59.948Z,52.90
2018-03-02T02:57:59.937Z,58.00
2018-03-02T02:58:59.892Z,49.30
2018-03-02T02:59:59.868Z,56.50
2018-03-02T03:00:59.857Z,45.70
2018-03-02T03:01:59.814Z,54.50
2018-03-02T03:02:59.789Z,52.40
2018-03-02T03:03:59.762Z,54.30
2018-03-02T03:04:59.734Z,49.00
2018-03-02T03:05:59.710Z,51.80
2018-03-02T03:06:59.684Z,54.40
2018-03-02T03:07:59.660Z,53.50
2018-03-02T03:08:59.630Z,50.20
2018-03-02T03:09:59.602Z,51.90
2018-03-02T03:10:59.583Z,53.70
2018-03-02T03:11:59.553Z,51.80
2018-03-02T03:12:59.524Z,49.60
2018-03-02T03:13:59.497Z,52.30
2018-03-02T03:14:59.471Z,52.80
2018-03-02T03:15:59.440Z,51.90
2018-03-02T03:16:59.415Z,55.60
2018-03-02T03:17:59.390Z,55.40
2018-03-02T03:18:59.362Z,53.10
2018-03-02T03:19:59.340Z,50.60
2018-03-02T03:20:59.307Z,53.80
2018-03-02T03:21:59.284Z,52.70
2018-03-02T03:22:59.258Z,52.30
2018-03-02T03:23:59.230Z,54.50
2018-03-02T03:24:59.203Z,51.10
2018-03-02T03:25:59.180Z,54.10
2018-03-02T03:26:59.148Z,49.60
2018-03-02T03:27:59.124Z,53.20
2018-03-02T03:28:59.098Z,49.60
2018-03-02T03:29:59.072Z,51.30
2018-03-02T03:30:59.043Z,52.80
2018-03-02T03:31:59.018Z,51.50
2018-03-02T03:32:58.991Z,52.80
2018-03-02T03:33:58.963Z,58.50
2018-03-02T03:34:58.937Z,52.70
2018-03-02T03:35:58.911Z,50.10
2018-03-02T03:36:58.893Z,49.20
2018-03-02T03:37:58.858Z,54.40
2018-03-02T03:38:58.829Z,51.40
2018-03-02T03:39:58.812Z,49.20
2018-03-02T03:40:58.779Z,54.60
2018-03-02T03:41:58.752Z,49.80
2018-03-02T03:42:58.725Z,52.00
2018-03-02T03:43:58.699Z,53.10
2018-03-02T03:44:58.675Z,50.80
2018-03-02T03:45:58.654Z,50.00
2018-03-02T03:46:58.617Z,49.20
2018-03-02T03:47:58.592Z,49.40
2018-03-02T03:48:58.574Z,52.50
2018-03-02T03:49:58.541Z,53.00
2018-03-02T03:50:58.513Z,51.30
2018-03-02T03:51:58.488Z,52.80
2018-03-02T03:52:58.460Z,52.20
2018-03-02T03:53:58.433Z,51.50
2018-03-02T03:54:58.414Z,55.70
2018-03-02T03:55:58.385Z,50.90
2018-03-02T03:56:58.354Z,52.10
2018-03-02T03:57:58.328Z,50.40
2018-03-02T03:58:58.299Z,53.10
2018-03-02T03:59:58.272Z,51.70
2018-03-02T04:00:58.247Z,53.40
2018-03-02T04:01:58.228Z,51.40
2018-03-02T04:02:58.191Z,52.30
2018-03-02T04:03:58.174Z,51.00
2018-03-02T04:04:58.145Z,54.20
2018-03-02T04:05:58.114Z,51.80
2018-03-02T04:06:58.087Z,51.70
2018-03-02T04:07:58.058Z,50.50
2018-03-02T04:08:58.034Z,48.80
2018-03-02T04:09:58.009Z,52.50
2018-03-02T04:10:57.978Z,50.80
2018-03-02T04:11:57.957Z,52.10
2018-03-02T04:12:57.933Z,53.30
2018-03-02T04:13:57.901Z,52.00
2018-03-02T04:14:57.877Z,52.70
2018-03-02T04:15:57.849Z,53.40
2018-03-02T04:16:57.819Z,53.90
2018-03-02T04:17:57.793Z,51.30
2018-03-02T04:18:57.766Z,56.30
2018-03-02T04:19:57.743Z,52.90
2018-03-02T04:20:57.717Z,53.90
2018-03-02T04:21:57.695Z,51.80
2018-03-02T04:22:57.692Z,52.90
2018-03-02T04:23:57.638Z,50.10
2018-03-02T04:24:57.612Z,53.50
2018-03-02T04:25:57.587Z,54.20
2018-03-02T04:26:57.558Z,51.40
2018-03-02T04:27:57.532Z,54.70
2018-03-02T04:28:57.505Z,57.80
2018-03-02T04:29:57.476Z,55.60
2018-03-02T04:30:57.449Z,50.40
2018-03-02T04:31:57.424Z,52.60
2018-03-02T04:32:57.398Z,54.40
2018-03-02T04:33:57.369Z,53.20
2018-03-02T04:34:57.345Z,53.20
2018-03-02T04:35:57.319Z,56.70
2018-03-02T04:36:57.288Z,53.40
2018-03-02T04:37:57.265Z,54.50
2018-03-02T04:38:57.239Z,53.40
2018-03-02T04:39:57.207Z,55.40
2018-03-02T04:40:57.180Z,54.50
2018-03-02T04:41:57.155Z,57.00
2018-03-02T04:42:57.127Z,55.90
2018-03-02T04:43:57.100Z,56.20
2018-03-02T04:44:57.074Z,55.20
2018-03-02T04:45:57.050Z,60.80
2018-03-02T04:46:57.024Z,55.30
2018-03-02T04:47:56.994Z,54.10
2018-03-02T04:48:56.978Z,54.90
2018-03-02T04:49:56.941Z,54.00
2018-03-02T04:50:56.918Z,56.00
2018-03-02T04:51:56.896Z,52.10
2018-03-02T04:52:56.861Z,54.40
2018-03-02T04:53:56.842Z,59.20
2018-03-02T04:54:56.816Z,55.00
2018-03-02T04:55:56.784Z,52.70
2018-03-02T04:56:56.758Z,52.60
2018-03-02T04:57:56.733Z,53.50
2018-03-02T04:58:56.700Z,55.00
2018-03-02T04:59:56.672Z,57.00
2018-03-02T05:00:56.650Z,51.20
2018-03-02T05:01:56.620Z,52.10
2018-03-02T05:02:56.594Z,55.40
2018-03-02T05:03:56.575Z,52.50
2018-03-02T05:04:56.542Z,60.30
2018-03-02T05:05:56.517Z,58.90
2018-03-02T05:06:56.489Z,52.40
2018-03-02T05:07:56.463Z,54.30
2018-03-02T05:08:56.440Z,56.10
2018-03-02T05:09:56.411Z,58.40
2018-03-02T05:10:56.383Z,56.30
2018-03-02T05:11:56.355Z,58.90
2018-03-02T05:12:56.327Z,53.70
2018-03-02T05:13:56.304Z,57.20
2018-03-02T05:14:56.283Z,59.80
2018-03-02T05:15:56.261Z,52.50
2018-03-02T05:16:56.224Z,59.60
2018-03-02T05:17:56.201Z,55.70
2018-03-02T05:18:56.170Z,57.20
2018-03-02T05:19:56.144Z,57.10
2018-03-02T05:20:56.115Z,57.40
2018-03-02T05:21:56.090Z,57.10
2018-03-02T05:22:56.074Z,56.60
2018-03-02T05:23:56.038Z,60.90
2018-03-02T05:24:56.009Z,55.80
2018-03-02T05:25:55.987Z,61.00
2018-03-02T05:26:55.962Z,58.30
2018-03-02T05:27:55.939Z,59.70
2018-03-02T05:28:55.905Z,55.30
2018-03-02T05:29:55.877Z,56.90
2018-03-02T05:30:55.851Z,59.60
2018-03-02T05:31:55.824Z,58.10
2018-03-02T05:32:55.795Z,55.20
2018-03-02T05:33:55.829Z,58.20
2018-03-02T05:34:55.741Z,59.10
2018-03-02T05:35:55.724Z,60.80
2018-03-02T05:36:55.695Z,56.10
2018-03-02T05:37:55.666Z,60.10
2018-03-02T05:38:55.638Z,60.90
2018-03-02T05:39:55.629Z,56.00
2018-03-02T05:40:55.584Z,56.60
2018-03-02T05:41:55.562Z,61.60
2018-03-02T05:42:55.537Z,57.50
2018-03-02T05:43:55.507Z,58.40
2018-03-02T05:44:55.478Z,56.90
2018-03-02T05:45:55.563Z,58.50
2018-03-02T05:46:55.425Z,56.80
2018-03-02T05:47:55.399Z,63.10
2018-03-02T05:48:55.372Z,58.60
2018-03-02T05:49:55.344Z,59.00
2018-03-02T05:50:55.320Z,60.30
2018-03-02T05:51:55.294Z,58.80
2018-03-02T05:52:55.264Z,57.40
2018-03-02T05:53:55.236Z,56.10
2018-03-02T05:54:55.211Z,57.40
2018-03-02T05:55:55.182Z,58.00
2018-03-02T05:56:55.161Z,53.10
2018-03-02T05:57:55.132Z,56.70
2018-03-02T05:58:55.104Z,55.80
2018-03-02T05:59:55.080Z,57.60
2018-03-02T06:00:55.053Z,58.00
2018-03-02T06:01:55.024Z,57.80
2018-03-02T06:02:54.997Z,53.60
2018-03-02T06:03:54.971Z,60.20
2018-03-02T06:04:54.946Z,51.80
2018-03-02T06:05:54.924Z,59.00
2018-03-02T06:06:54.891Z,56.50
2018-03-02T06:07:54.873Z,60.70
2018-03-02T06:08:54.839Z,59.00
2018-03-02T06:09:54.810Z,56.40
2018-03-02T06:10:54.784Z,57.50
2018-03-02T06:11:54.756Z,55.40
2018-03-02T06:12:54.732Z,55.80
2018-03-02T06:13:54.704Z,56.90
2018-03-02T06:14:54.676Z,57.20
2018-03-02T06:15:54.652Z,55.50
2018-03-02T06:16:54.624Z,55.50
2018-03-02T06:17:54.597Z,53.10
2018-03-02T06:18:54.568Z,57.20
2018-03-02T06:19:54.545Z,56.50
2018-03-02T06:20:54.517Z,59.10
2018-03-02T06:21:54.496Z,55.60
2018-03-02T06:22:54.464Z,55.70
2018-03-02T06:23:54.442Z,55.60
2018-03-02T06:24:54.415Z,57.00
2018-03-02T06:25:54.391Z,54.70
2018-03-02T06:26:54.356Z,55.10
2018-03-02T06:27:54.334Z,52.80
2018-03-02T06:28:54.316Z,57.10
2018-03-02T06:29:54.283Z,52.50
2018-03-02T06:30:54.304Z,55.70
2018-03-02T06:31:54.232Z,60.20
2018-03-02T06:32:54.217Z,55.20
2018-03-02T06:33:54.174Z,56.10
2018-03-02T06:34:54.249Z,52.80
2018-03-02T06:35:54.116Z,53.70
2018-03-02T06:36:54.177Z,56.00
2018-03-02T06:37:54.073Z,59.60
2018-03-02T06:38:54.155Z,58.50
2018-03-02T06:39:54.014Z,52.50
2018-03-02T06:40:54.160Z,54.00
2018-03-02T06:41:53.959Z,56.50
2018-03-02T06:42:53.948Z,58.20
2018-03-02T06:43:53.906Z,58.90
2018-03-02T06:44:53.884Z,56.10
2018-03-02T06:45:53.858Z,54.10
2018-03-02T06:46:53.827Z,55.70
2018-03-02T06:47:53.802Z,56.20
2018-03-02T06:48:53.780Z,57.10
2018-03-02T06:49:53.754Z,54.10
2018-03-02T06:50:53.725Z,54.70
2018-03-02T06:51:53.698Z,57.90
2018-03-02T06:52:53.670Z,57.20
2018-03-02T06:53:53.648Z,59.90
2018-03-02T06:54:53.622Z,57.00
2018-03-02T06:55:53.590Z,54.80
2018-03-02T06:56:53.565Z,60.30
2018-03-02T06:57:53.548Z,55.00
2018-03-02T06:58:53.509Z,57.80
2018-03-02T06:59:53.487Z,55.30
2018-03-02T07:00:53.462Z,58.50
2018-03-02T07:01:53.432Z,57.10
2018-03-02T07:02:53.408Z,54.80
2018-03-02T07:03:53.382Z,53.30
2018-03-02T07:04:53.358Z,55.20
2018-03-02T07:05:53.326Z,54.40
2018-03-02T07:06:53.309Z,58.20
2018-03-02T07:07:53.275Z,56.90
2018-03-02T07:08:53.248Z,55.50
2018-03-02T07:09:53.226Z,56.20
2018-03-02T07:10:53.203Z,53.80
2018-03-02T07:11:53.170Z,56.10
2018-03-02T07:12:53.145Z,53.00
2018-03-02T07:13:53.125Z,58.80
2018-03-02T07:14:53.094Z,55.00
2018-03-02T07:15:53.065Z,56.10
2018-03-02T07:16:53.040Z,57.80
2018-03-02T07:17:53.016Z,54.00
2018-03-02T07:18:52.992Z,58.00
2018-03-02T07:19:52.970Z,54.80
2018-03-02T07:20:52.938Z,57.40
2018-03-02T07:21:52.915Z,53.20
2018-03-02T07:22:52.899Z,56.30
2018-03-02T07:23:52.866Z,53.10
2018-03-02T07:24:52.835Z,58.30
2018-03-02T07:25:52.808Z,56.70
2018-03-02T07:26:52.785Z,53.50
2018-03-02T07:27:52.758Z,58.10
2018-03-02T07:28:52.733Z,57.80
2018-03-02T07:29:52.704Z,53.40
2018-03-02T07:30:52.682Z,55.40
2018-03-02T07:31:52.654Z,54.10
2018-03-02T07:32:52.635Z,54.00
2018-03-02T07:33:52.603Z,59.80
2018-03-02T07:34:52.578Z,55.40
2018-03-02T07:35:52.559Z,53.30
2018-03-02T07:36:52.524Z,57.00
2018-03-02T07:37:52.509Z,53.90
2018-03-02T07:38:52.475Z,54.20
2018-03-02T07:39:52.453Z,60.10
2018-03-02T07:40:52.424Z,59.20
2018-03-02T07:41:52.398Z,59.40
2018-03-02T07:42:52.373Z,58.10
2018-03-02T07:43:52.349Z,55.10
2018-03-02T07:44:52.321Z,55.80
2018-03-02T07:45:52.303Z,55.10
2018-03-02T07:46:52.271Z,57.70
2018-03-02T07:47:52.246Z,55.10
2018-03-02T07:48:52.223Z,58.70
2018-03-02T07:49:52.199Z,57.90
2018-03-02T07:50:52.166Z,59.30
2018-03-02T07:51:52.145Z,58.90
2018-03-02T07:52:52.119Z,61.50
2018-03-02T07:53:52.094Z,58.90
2018-03-02T07:54:52.073Z,58.70
2018-03-02T07:55:52.042Z,54.50
2018-03-02T07:56:52.017Z,55.50
2018-03-02T07:57:51.997Z,58.80
2018-03-02T07:58:51.970Z,57.40
2018-03-02T07:59:51.941Z,57.40
2018-03-02T08:00:51.913Z,56.70
2018-03-02T08:01:51.892Z,61.40
2018-03-02T08:02:51.868Z,60.10
2018-03-02T08:03:51.840Z,56.10
2018-03-02T08:04:51.819Z,55.20
2018-03-02T08:05:51.794Z,60.30
2018-03-02T08:06:51.769Z,59.10
2018-03-02T08:07:51.743Z,61.20
2018-03-02T08:08:51.717Z,59.70
2018-03-02T08:09:51.691Z,56.90
2018-03-02T08:10:51.668Z,55.50
2018-03-02T08:11:51.649Z,57.80
2018-03-02T08:12:51.623Z,58.50
2018-03-02T08:13:51.595Z,57.40
2018-03-02T08:14:51.570Z,58.30
2018-03-02T08:15:51.544Z,58.10
2018-03-02T08:16:51.523Z,61.40
2018-03-02T08:17:51.498Z,56.40
2018-03-02T08:18:51.470Z,56.70
2018-03-02T08:19:51.452Z,55.90
2018-03-02T08:20:51.425Z,58.30
2018-03-02T08:21:51.400Z,58.40
2018-03-02T08:22:51.380Z,55.30
2018-03-02T08:23:51.359Z,55.90
2018-03-02T08:24:51.330Z,56.70
2018-03-02T08:25:51.308Z,56.10
2018-03-02T08:26:51.276Z,59.30
2018-03-02T08:27:51.269Z,57.20
2018-03-02T08:28:51.230Z,61.60
2018-03-02T08:29:51.211Z,60.80
2018-03-02T08:30:51.182Z,60.80
2018-03-02T08:31:51.160Z,56.90
2018-03-02T08:32:51.139Z,57.30
2018-03-02T08:33:51.122Z,51.60
2018-03-02T08:34:51.095Z,52.30
2018-03-02T08:35:51.064Z,59.50
2018-03-02T08:36:51.041Z,59.50
2018-03-02T08:37:51.021Z,59.80
2018-03-02T08:38:50.990Z,56.80
2018-03-02T08:39:50.972Z,56.90
2018-03-02T08:40:50.951Z,55.60
2018-03-02T08:41:50.926Z,56.50
2018-03-02T08:42:50.902Z,55.80
2018-03-02T08:43:50.878Z,56.20
2018-03-02T08:44:50.862Z,54.60
2018-03-02T08:45:50.832Z,55.70
2018-03-02T08:46:50.810Z,51.50
2018-03-02T08:47:50.790Z,53.30
2018-03-02T08:48:50.767Z,52.80
2018-03-02T08:49:50.744Z,57.80
2018-03-02T08:50:50.728Z,55.90
2018-03-02T08:51:50.701Z,55.10
2018-03-02T08:52:50.681Z,53.40
2018-03-02T08:53:50.661Z,53.80
2018-03-02T08:54:50.641Z,59.40
2018-03-02T08:55:50.618Z,56.70
2018-03-02T08:56:50.602Z,54.30
2018-03-02T08:57:50.582Z,53.40
2018-03-02T08:58:50.560Z,56.00
2018-03-02T08:59:50.539Z,54.60
2018-03-02T09:00:50.521Z,54.80
2018-03-02T09:01:50.499Z,53.70
2018-03-02T09:02:50.489Z,53.00
2018-03-02T09:03:50.477Z,54.40
2018-03-02T09:04:50.437Z,55.30
2018-03-02T09:05:50.419Z,53.30
2018-03-02T09:06:50.402Z,57.00
2018-03-02T09:07:50.383Z,54.20
2018-03-02T09:08:50.362Z,50.60
2018-03-02T09:09:50.344Z,56.10
2018-03-02T09:10:50.324Z,55.00
2018-03-02T09:11:50.394Z,55.90
2018-03-02T09:12:50.289Z,52.70
2018-03-02T09:13:50.273Z,53.10
2018-03-02T09:14:50.254Z,54.30
2018-03-02T09:15:50.242Z,51.50
2018-03-02T09:16:50.266Z,55.50
2018-03-02T09:17:50.198Z,51.30
2018-03-02T09:18:50.183Z,52.30
2018-03-02T09:19:50.165Z,53.20
2018-03-02T09:20:50.150Z,53.00
2018-03-02T09:21:50.131Z,52.30
2018-03-02T09:22:50.184Z,54.90
2018-03-02T09:23:50.107Z,54.80
2018-03-02T09:24:50.140Z,54.70
2018-03-02T09:25:50.064Z,53.70
2018-03-02T09:26:50.048Z,52.30
2018-03-02T09:27:50.030Z,52.40
2018-03-02T09:28:50.014Z,53.80
2018-03-02T09:29:50.006Z,50.90
2018-03-02T09:30:49.985Z,50.50
2018-03-02T09:31:49.963Z,53.00
2018-03-02T09:32:50.055Z,51.90
2018-03-02T09:33:49.930Z,54.60
2018-03-02T09:34:50.002Z,50.50
2018-03-02T09:35:49.898Z,49.60
2018-03-02T09:36:49.889Z,48.80
2018-03-02T09:37:49.867Z,49.90
2018-03-02T09:38:49.860Z,51.10
2018-03-02T09:39:49.847Z,48.70
2018-03-02T09:40:49.840Z,51.90
2018-03-02T09:41:49.810Z,55.80
2018-03-02T09:42:49.916Z,50.40
2018-03-02T09:43:49.779Z,49.80
2018-03-02T09:44:49.764Z,50.40
2018-03-02T09:45:49.754Z,53.20
2018-03-02T09:46:49.742Z,54.70
2018-03-02T09:47:49.739Z,50.70
2018-03-02T09:48:49.716Z,54.30
2018-03-02T09:49:49.699Z,52.00
2018-03-02T09:50:49.691Z,51.40
2018-03-02T09:51:49.677Z,49.60
2018-03-02T09:52:49.669Z,53.10
2018-03-02T09:53:49.653Z,48.60
2018-03-02T09:54:49.666Z,49.40
2018-03-02T09:55:49.633Z,47.70
2018-03-02T09:56:49.622Z,47.50
2018-03-02T09:57:49.614Z,46.70
2018-03-02T09:58:49.606Z,47.50
2018-03-02T09:59:49.589Z,45.40
2018-03-02T10:00:49.583Z,45.80
2018-03-02T10:01:49.569Z,46.00
2018-03-02T10:02:49.559Z,47.30
2018-03-02T10:03:49.553Z,48.40
2018-03-02T10:04:49.540Z,46.50
2018-03-02T10:05:49.533Z,46.20
2018-03-02T10:06:49.525Z,47.10
2018-03-02T10:07:49.515Z,47.40
2018-03-02T10:08:49.513Z,45.70
2018-03-02T10:09:49.498Z,43.80
2018-03-02T10:10:49.494Z,44.30
2018-03-02T10:11:49.486Z,45.90
2018-03-02T10:12:49.480Z,45.70
2018-03-02T10:13:49.470Z,46.30
2018-03-02T10:14:49.462Z,46.50
2018-03-02T10:15:49.456Z,48.00
2018-03-02T10:16:49.450Z,46.30
2018-03-02T10:17:49.444Z,47.20
2018-03-02T10:18:49.438Z,46.70
2018-03-02T10:19:49.425Z,43.80
2018-03-02T10:20:49.421Z,40.80
2018-03-02T10:21:49.417Z,44.20
2018-03-02T10:22:49.416Z,43.00
2018-03-02T10:23:49.408Z,43.00
2018-03-02T10:24:49.397Z,43.00
2018-03-02T10:25:49.399Z,42.70
2018-03-02T10:26:49.384Z,43.40
2018-03-02T10:27:49.506Z,44.80
2018-03-02T10:28:49.378Z,41.10
2018-03-02T10:29:49.372Z,40.70
2018-03-02T10:30:49.365Z,40.90
2018-03-02T10:31:49.417Z,42.10
2018-03-02T10:32:49.360Z,38.10
2018-03-02T10:33:49.352Z,38.60
2018-03-02T10:34:49.347Z,40.40
2018-03-02T10:35:49.343Z,38.80
2018-03-02T10:36:49.337Z,39.90
2018-03-02T10:37:49.338Z,41.00
2018-03-02T10:38:49.331Z,38.70
2018-03-02T10:39:49.325Z,38.20
2018-03-02T10:40:49.323Z,38.40
2018-03-02T10:41:49.326Z,39.80
2018-03-02T10:42:49.311Z,39.50
2018-03-02T10:43:49.305Z,39.90
2018-03-02T10:44:49.315Z,39.70
2018-03-02T10:45:49.306Z,39.60
2018-03-02T10:46:49.297Z,39.30
2018-03-02T10:47:49.292Z,42.10
2018-03-02T10:48:49.287Z,39.20
2018-03-02T10:49:49.282Z,40.70
2018-03-02T10:50:49.281Z,34.60
2018-03-02T10:51:49.276Z,37.20
2018-03-02T10:52:49.279Z,40.60
2018-03-02T10:53:49.272Z,39.60
2018-03-02T10:54:49.266Z,37.70
2018-03-02T10:55:49.265Z,39.10
2018-03-02T10:56:49.257Z,36.10
2018-03-02T10:57:49.256Z,39.40
2018-03-02T10:58:49.258Z,37.50
2018-03-02T10:59:49.250Z,39.80
2018-03-02T11:00:49.248Z,39.60
2018-03-02T11:01:49.286Z,39.60
2018-03-02T11:02:49.266Z,36.80
2018-03-02T11:03:49.246Z,34.30
2018-03-02T11:04:49.235Z,36.40
2018-03-02T11:05:49.235Z,39.00
2018-03-02T11:06:49.232Z,39.20
2018-03-02T11:07:49.230Z,39.90
2018-03-02T11:08:49.225Z,38.60
2018-03-02T11:09:49.224Z,34.60
2018-03-02T11:10:49.220Z,35.90
2018-03-02T11:11:49.224Z,37.90
2018-03-02T11:12:49.217Z,34.80
2018-03-02T11:13:49.216Z,36.80
2018-03-02T11:14:49.209Z,39.00
2018-03-02T11:15:49.208Z,35.00
2018-03-02T11:16:49.207Z,36.40
2018-03-02T11:17:49.208Z,33.00
2018-03-02T11:18:49.204Z,34.70
2018-03-02T11:19:49.208Z,36.80
2018-03-02T11:20:49.196Z,34.00
2018-03-02T11:21:49.196Z,35.80
2018-03-02T11:22:49.191Z,32.40
2018-03-02T11:23:49.192Z,34.50
2018-03-02T11:24:49.192Z,36.00
2018-03-02T11:25:49.190Z,34.00
2018-03-02T11:26:49.189Z,36.70
2018-03-02T11:27:49.186Z,34.00
2018-03-02T11:28:49.186Z,37.40
2018-03-02T11:29:49.186Z,35.60
2018-03-02T11:30:49.178Z,37.30
2018-03-02T11:31:49.173Z,35.60
2018-03-02T11:32:49.176Z,36.40
2018-03-02T11:33:49.176Z,39.50
2018-03-02T11:34:49.173Z,37.50
2018-03-02T11:35:49.169Z,36.90
2018-03-02T11:36:49.169Z,35.20
2018-03-02T11:37:49.174Z,35.80
2018-03-02T11:38:49.164Z,35.50
2018-03-02T11:39:49.162Z,35.00
2018-03-02T11:40:49.171Z,33.20
2018-03-02T11:41:49.169Z,33.50
2018-03-02T11:42:49.161Z,33.80
2018-03-02T11:43:49.164Z,32.20
2018-03-02T11:44:49.163Z,35.70
2018-03-02T11:45:49.163Z,33.50
2018-03-02T11:46:49.156Z,34.30
2018-03-02T11:47:49.156Z,34.80
2018-03-02T11:48:49.159Z,35.70
2018-03-02T11:49:49.156Z,34.40
2018-03-02T11:50:49.154Z,34.50
2018-03-02T11:51:49.155Z,34.90
2018-03-02T11:52:49.161Z,34.90
2018-03-02T11:53:49.153Z,35.00
2018-03-02T11:54:49.161Z,35.70
2018-03-02T11:55:49.151Z,32.80
2018-03-02T11:56:49.149Z,36.30
2018-03-02T11:57:49.150Z,34.20
2018-03-02T11:58:49.152Z,33.80
2018-03-02T11:59:49.152Z,32.00
2018-03-02T12:00:49.143Z,33.80
2018-03-02T12:01:49.144Z,33.90
2018-03-02T12:02:49.153Z,37.70
2018-03-02T12:03:49.143Z,38.90
2018-03-02T12:04:49.143Z,35.00
2018-03-02T12:05:49.145Z,36.80
2018-03-02T12:06:49.141Z,35.40
2018-03-02T12:07:49.141Z,34.20
2018-03-02T12:08:49.141Z,37.60
2018-03-02T12:09:49.141Z,38.60
2018-03-02T12:10:49.140Z,35.20
2018-03-02T12:11:49.135Z,37.60
2018-03-02T12:12:49.135Z,37.60
2018-03-02T12:13:49.131Z,37.60
2018-03-02T12:14:49.137Z,36.80
2018-03-02T12:15:49.140Z,36.60
2018-03-02T12:16:49.194Z,37.40
2018-03-02T12:17:49.133Z,36.50
2018-03-02T12:18:49.132Z,37.50
2018-03-02T12:19:49.132Z,37.20
2018-03-02T12:20:49.126Z,38.80
2018-03-02T12:21:49.126Z,42.10
2018-03-02T12:22:49.137Z,37.70
2018-03-02T12:23:49.122Z,38.40
2018-03-02T12:24:49.127Z,36.70
2018-03-02T12:25:49.120Z,41.00
2018-03-02T12:26:49.121Z,41.60
2018-03-02T12:27:49.117Z,38.40
2018-03-02T12:28:49.117Z,39.60
2018-03-02T12:29:49.117Z,40.40
2018-03-02T12:30:49.115Z,38.40
2018-03-02T12:31:49.110Z,38.70
2018-03-02T12:32:49.115Z,40.20
2018-03-02T12:33:49.119Z,38.50
2018-03-02T12:34:49.111Z,39.10
2018-03-02T12:35:49.112Z,39.90
2018-03-02T12:36:49.109Z,39.20
2018-03-02T12:37:49.107Z,40.30
2018-03-02T12:38:49.186Z,39.20
2018-03-02T12:39:49.106Z,39.20
2018-03-02T12:40:49.105Z,41.00
2018-03-02T12:41:49.102Z,42.90
2018-03-02T12:42:49.100Z,39.60
2018-03-02T12:43:49.098Z,40.40
2018-03-02T12:44:49.105Z,41.20
2018-03-02T12:45:49.094Z,39.30
2018-03-02T12:46:49.091Z,41.90
2018-03-02T12:47:49.092Z,41.30
2018-03-02T12:48:49.093Z,43.90
2018-03-02T12:49:49.089Z,41.00
2018-03-02T12:50:49.083Z,43.00
2018-03-02T12:51:49.081Z,39.30